sensor_id;sensor_type;location;lat;lon;timestamp;temperature;humidity
17170;DHT22;8700;48.222;16.342;2023-07-13T00:02:41;23.60;99.90
17170;DHT22;8700;48.222;16.342;2023-07-13T00:06:02;23.50;99.90
17170;DHT22;8700;48.222;16.342;2023-07-13T00:09:24;23.50;99.90
17170;DHT22;8700;48.222;16.342;2023-07-13T00:12:45;23.50;99.90
17170;DHT22;8700;48.222;16.342;2023-07-13T00:16:09;23.50;99.90
17170;DHT22;8700;48.222;16.342;2023-07-13T00:19:31;23.20;99.90
17170;DHT22;8700;48.222;16.342;2023-07-13T00:22:52;23.10;99.90
17170;DHT22;8700;48.222;16.342;2023-07-13T00:26:14;23.00;99.90
17170;DHT22;8700;48.222;16.342;2023-07-13T00:29:37;22.80;99.90
17170;DHT22;8700;48.222;16.342;2023-07-13T00:33:00;22.90;99.90
17170;DHT22;8700;48.222;16.342;2023-07-13T00:36:21;22.90;99.90
17170;DHT22;8700;48.222;16.342;2023-07-13T00:39:43;22.90;99.90
17170;DHT22;8700;48.222;16.342;2023-07-13T00:43:08;23.10;99.90
17170;DHT22;8700;48.222;16.342;2023-07-13T00:46:32;23.10;99.90
17170;DHT22;8700;48.222;16.342;2023-07-13T00:49:55;23.00;99.90
17170;DHT22;8700;48.222;16.342;2023-07-13T00:53:17;22.90;99.90
17170;DHT22;8700;48.222;16.342;2023-07-13T00:56:39;22.90;99.90
17170;DHT22;8700;48.222;16.342;2023-07-13T01:00:04;23.00;99.90
17170;DHT22;8700;48.222;16.342;2023-07-13T01:03:28;23.20;99.90
17170;DHT22;8700;48.222;16.342;2023-07-13T01:06:52;23.30;99.90
17170;DHT22;8700;48.222;16.342;2023-07-13T01:10:35;23.50;99.90
17170;DHT22;8700;48.222;16.342;2023-07-13T01:13:59;23.70;99.90
17170;DHT22;8700;48.222;16.342;2023-07-13T01:17:21;23.80;99.90
17170;DHT22;8700;48.222;16.342;2023-07-13T01:20:50;24.00;99.90
17170;DHT22;8700;48.222;16.342;2023-07-13T01:24:11;24.10;99.90
17170;DHT22;8700;48.222;16.342;2023-07-13T01:27:33;23.80;99.90
17170;DHT22;8700;48.222;16.342;2023-07-13T01:30:56;23.80;99.90
17170;DHT22;8700;48.222;16.342;2023-07-13T01:34:18;23.80;99.90
17170;DHT22;8700;48.222;16.342;2023-07-13T01:37:41;24.00;99.90
17170;DHT22;8700;48.222;16.342;2023-07-13T01:41:02;24.20;99.90
17170;DHT22;8700;48.222;16.342;2023-07-13T01:44:23;24.20;99.90
17170;DHT22;8700;48.222;16.342;2023-07-13T01:47:45;24.10;99.90
17170;DHT22;8700;48.222;16.342;2023-07-13T01:51:07;24.20;99.90
17170;DHT22;8700;48.222;16.342;2023-07-13T01:54:29;24.40;99.90
17170;DHT22;8700;48.222;16.342;2023-07-13T01:57:50;24.30;99.90
17170;DHT22;8700;48.222;16.342;2023-07-13T02:01:12;24.30;99.90
17170;DHT22;8700;48.222;16.342;2023-07-13T02:04:34;24.30;99.90
17170;DHT22;8700;48.222;16.342;2023-07-13T02:07:55;24.30;99.90
17170;DHT22;8700;48.222;16.342;2023-07-13T02:11:17;24.10;99.90
17170;DHT22;8700;48.222;16.342;2023-07-13T02:14:39;24.20;99.90
17170;DHT22;8700;48.222;16.342;2023-07-13T02:18:00;24.30;99.90
17170;DHT22;8700;48.222;16.342;2023-07-13T02:21:23;24.40;99.90
17170;DHT22;8700;48.222;16.342;2023-07-13T02:24:45;24.40;99.90
17170;DHT22;8700;48.222;16.342;2023-07-13T02:28:07;24.40;99.90
17170;DHT22;8700;48.222;16.342;2023-07-13T02:31:29;24.30;99.90
17170;DHT22;8700;48.222;16.342;2023-07-13T02:34:50;24.10;99.90
17170;DHT22;8700;48.222;16.342;2023-07-13T02:38:12;24.00;99.90
17170;DHT22;8700;48.222;16.342;2023-07-13T02:41:33;24.00;99.90
17170;DHT22;8700;48.222;16.342;2023-07-13T02:44:56;24.00;99.90
17170;DHT22;8700;48.222;16.342;2023-07-13T02:48:17;24.10;99.90
17170;DHT22;8700;48.222;16.342;2023-07-13T02:51:38;23.90;99.90
17170;DHT22;8700;48.222;16.342;2023-07-13T02:54:59;23.80;99.90
17170;DHT22;8700;48.222;16.342;2023-07-13T02:58:20;23.70;99.90
17170;DHT22;8700;48.222;16.342;2023-07-13T03:01:43;23.60;99.90
17170;DHT22;8700;48.222;16.342;2023-07-13T03:05:05;23.50;99.90
17170;DHT22;8700;48.222;16.342;2023-07-13T03:08:26;23.30;99.90
17170;DHT22;8700;48.222;16.342;2023-07-13T03:11:47;23.10;99.90
17170;DHT22;8700;48.222;16.342;2023-07-13T03:15:10;22.90;99.90
17170;DHT22;8700;48.222;16.342;2023-07-13T03:18:33;22.90;99.90
17170;DHT22;8700;48.222;16.342;2023-07-13T03:21:54;22.80;99.90
17170;DHT22;8700;48.222;16.342;2023-07-13T03:25:15;22.70;99.90
17170;DHT22;8700;48.222;16.342;2023-07-13T03:28:36;22.50;99.90
17170;DHT22;8700;48.222;16.342;2023-07-13T03:31:58;22.40;99.90
17170;DHT22;8700;48.222;16.342;2023-07-13T03:35:20;22.30;99.90
17170;DHT22;8700;48.222;16.342;2023-07-13T03:38:42;22.20;99.90
17170;DHT22;8700;48.222;16.342;2023-07-13T03:42:03;22.40;99.90
17170;DHT22;8700;48.222;16.342;2023-07-13T03:45:24;22.50;99.90
17170;DHT22;8700;48.222;16.342;2023-07-13T03:48:46;22.50;99.90
17170;DHT22;8700;48.222;16.342;2023-07-13T03:52:09;22.40;99.90
17170;DHT22;8700;48.222;16.342;2023-07-13T03:55:30;22.40;99.90
17170;DHT22;8700;48.222;16.342;2023-07-13T03:58:52;22.40;99.90
17170;DHT22;8700;48.222;16.342;2023-07-13T04:02:13;22.50;99.90
17170;DHT22;8700;48.222;16.342;2023-07-13T04:05:34;22.40;99.90
17170;DHT22;8700;48.222;16.342;2023-07-13T04:09:01;22.20;99.90
17170;DHT22;8700;48.222;16.342;2023-07-13T04:12:23;22.20;99.90
17170;DHT22;8700;48.222;16.342;2023-07-13T04:15:44;22.10;99.90
17170;DHT22;8700;48.222;16.342;2023-07-13T04:19:10;22.20;99.90
17170;DHT22;8700;48.222;16.342;2023-07-13T04:22:31;22.30;99.90
17170;DHT22;8700;48.222;16.342;2023-07-13T04:25:54;22.20;99.90
17170;DHT22;8700;48.222;16.342;2023-07-13T04:29:15;22.10;99.90
17170;DHT22;8700;48.222;16.342;2023-07-13T04:32:38;22.30;99.90
17170;DHT22;8700;48.222;16.342;2023-07-13T04:35:59;22.40;99.90
17170;DHT22;8700;48.222;16.342;2023-07-13T04:39:21;22.50;99.90
17170;DHT22;8700;48.222;16.342;2023-07-13T04:42:45;22.30;99.90
17170;DHT22;8700;48.222;16.342;2023-07-13T04:46:07;22.20;99.90
17170;DHT22;8700;48.222;16.342;2023-07-13T04:49:29;22.20;99.90
17170;DHT22;8700;48.222;16.342;2023-07-13T04:52:50;22.20;99.90
17170;DHT22;8700;48.222;16.342;2023-07-13T04:56:11;22.40;99.90
17170;DHT22;8700;48.222;16.342;2023-07-13T04:59:34;22.60;99.90
17170;DHT22;8700;48.222;16.342;2023-07-13T05:02:57;22.70;99.90
17170;DHT22;8700;48.222;16.342;2023-07-13T05:06:19;22.80;99.90
17170;DHT22;8700;48.222;16.342;2023-07-13T05:09:40;22.80;99.90
17170;DHT22;8700;48.222;16.342;2023-07-13T05:13:02;23.00;99.90
17170;DHT22;8700;48.222;16.342;2023-07-13T05:16:24;23.00;99.90
17170;DHT22;8700;48.222;16.342;2023-07-13T05:19:46;22.80;99.90
17170;DHT22;8700;48.222;16.342;2023-07-13T05:23:07;23.10;99.90
17170;DHT22;8700;48.222;16.342;2023-07-13T05:26:28;23.30;99.90
17170;DHT22;8700;48.222;16.342;2023-07-13T05:29:50;23.20;99.90
17170;DHT22;8700;48.222;16.342;2023-07-13T05:33:12;23.40;99.90
17170;DHT22;8700;48.222;16.342;2023-07-13T05:36:34;23.40;99.90
17170;DHT22;8700;48.222;16.342;2023-07-13T05:39:55;23.30;99.90
17170;DHT22;8700;48.222;16.342;2023-07-13T05:43:16;23.50;99.90
17170;DHT22;8700;48.222;16.342;2023-07-13T05:46:38;23.50;99.90
17170;DHT22;8700;48.222;16.342;2023-07-13T05:50:00;23.10;99.90
17170;DHT22;8700;48.222;16.342;2023-07-13T05:53:22;22.70;99.90
17170;DHT22;8700;48.222;16.342;2023-07-13T05:56:43;22.60;99.90
17170;DHT22;8700;48.222;16.342;2023-07-13T06:00:06;22.50;99.90
17170;DHT22;8700;48.222;16.342;2023-07-13T06:03:27;22.50;99.90
17170;DHT22;8700;48.222;16.342;2023-07-13T06:06:50;22.40;99.90
17170;DHT22;8700;48.222;16.342;2023-07-13T06:10:11;22.50;99.90
17170;DHT22;8700;48.222;16.342;2023-07-13T06:13:33;22.70;99.90
17170;DHT22;8700;48.222;16.342;2023-07-13T06:16:54;22.60;99.90
17170;DHT22;8700;48.222;16.342;2023-07-13T06:20:15;22.40;99.90
17170;DHT22;8700;48.222;16.342;2023-07-13T06:23:38;22.20;99.90
17170;DHT22;8700;48.222;16.342;2023-07-13T06:26:59;22.00;99.90
17170;DHT22;8700;48.222;16.342;2023-07-13T06:30:21;21.90;99.90
17170;DHT22;8700;48.222;16.342;2023-07-13T06:33:42;21.90;99.90
17170;DHT22;8700;48.222;16.342;2023-07-13T06:37:05;22.10;99.90
17170;DHT22;8700;48.222;16.342;2023-07-13T06:40:27;22.00;99.90
17170;DHT22;8700;48.222;16.342;2023-07-13T06:43:50;21.90;99.90
17170;DHT22;8700;48.222;16.342;2023-07-13T06:47:11;21.90;99.90
17170;DHT22;8700;48.222;16.342;2023-07-13T06:50:33;22.10;99.90
17170;DHT22;8700;48.222;16.342;2023-07-13T06:53:55;22.20;99.90
17170;DHT22;8700;48.222;16.342;2023-07-13T06:57:18;22.60;99.90
17170;DHT22;8700;48.222;16.342;2023-07-13T07:00:39;22.50;99.90
17170;DHT22;8700;48.222;16.342;2023-07-13T07:04:01;22.60;99.90
17170;DHT22;8700;48.222;16.342;2023-07-13T07:07:24;22.70;99.90
17170;DHT22;8700;48.222;16.342;2023-07-13T07:10:45;23.20;99.90
17170;DHT22;8700;48.222;16.342;2023-07-13T07:14:08;23.30;99.90
17170;DHT22;8700;48.222;16.342;2023-07-13T07:17:30;23.80;99.90
17170;DHT22;8700;48.222;16.342;2023-07-13T07:20:51;23.60;99.90
17170;DHT22;8700;48.222;16.342;2023-07-13T07:24:13;23.40;99.90
17170;DHT22;8700;48.222;16.342;2023-07-13T07:27:35;23.40;99.90
17170;DHT22;8700;48.222;16.342;2023-07-13T07:30:58;23.70;99.90
17170;DHT22;8700;48.222;16.342;2023-07-13T07:34:19;23.70;99.90
17170;DHT22;8700;48.222;16.342;2023-07-13T07:37:41;23.80;99.90
17170;DHT22;8700;48.222;16.342;2023-07-13T07:41:03;24.10;99.90
17170;DHT22;8700;48.222;16.342;2023-07-13T07:44:25;24.40;99.90
17170;DHT22;8700;48.222;16.342;2023-07-13T07:47:48;24.40;99.90
17170;DHT22;8700;48.222;16.342;2023-07-13T07:51:09;24.00;99.90
17170;DHT22;8700;48.222;16.342;2023-07-13T07:54:32;23.90;99.90
17170;DHT22;8700;48.222;16.342;2023-07-13T07:57:53;24.10;99.90
17170;DHT22;8700;48.222;16.342;2023-07-13T08:01:15;24.20;99.90
17170;DHT22;8700;48.222;16.342;2023-07-13T08:04:38;24.40;99.90
17170;DHT22;8700;48.222;16.342;2023-07-13T08:07:59;24.90;99.90
17170;DHT22;8700;48.222;16.342;2023-07-13T08:11:21;25.10;99.90
17170;DHT22;8700;48.222;16.342;2023-07-13T08:14:43;25.80;99.90
17170;DHT22;8700;48.222;16.342;2023-07-13T08:18:04;26.30;99.90
17170;DHT22;8700;48.222;16.342;2023-07-13T08:21:28;26.50;99.90
17170;DHT22;8700;48.222;16.342;2023-07-13T08:24:49;27.30;99.90
17170;DHT22;8700;48.222;16.342;2023-07-13T08:28:15;29.60;99.90
17170;DHT22;8700;48.222;16.342;2023-07-13T08:31:37;31.40;99.90
17170;DHT22;8700;48.222;16.342;2023-07-13T08:34:58;31.90;99.90
17170;DHT22;8700;48.222;16.342;2023-07-13T08:38:21;31.60;99.90
17170;DHT22;8700;48.222;16.342;2023-07-13T08:41:42;31.60;99.90
17170;DHT22;8700;48.222;16.342;2023-07-13T08:45:14;31.90;99.90
17170;DHT22;8700;48.222;16.342;2023-07-13T08:48:42;31.00;99.90
17170;DHT22;8700;48.222;16.342;2023-07-13T08:52:08;29.40;99.90
17170;DHT22;8700;48.222;16.342;2023-07-13T08:55:35;29.10;99.90
17170;DHT22;8700;48.222;16.342;2023-07-13T08:59:02;30.80;99.90
17170;DHT22;8700;48.222;16.342;2023-07-13T09:02:27;30.20;99.90
17170;DHT22;8700;48.222;16.342;2023-07-13T09:05:53;31.20;99.90
17170;DHT22;8700;48.222;16.342;2023-07-13T09:09:27;32.00;99.90
17170;DHT22;8700;48.222;16.342;2023-07-13T09:13:04;32.10;99.50
17170;DHT22;8700;48.222;16.342;2023-07-13T09:16:28;31.70;99.90
17170;DHT22;8700;48.222;16.342;2023-07-13T09:19:54;31.50;99.90
17170;DHT22;8700;48.222;16.342;2023-07-13T09:23:21;32.20;99.90
17170;DHT22;8700;48.222;16.342;2023-07-13T09:26:42;31.70;99.90
17170;DHT22;8700;48.222;16.342;2023-07-13T09:30:20;31.50;99.90
17170;DHT22;8700;48.222;16.342;2023-07-13T09:33:45;30.10;99.90
17170;DHT22;8700;48.222;16.342;2023-07-13T09:37:06;30.70;99.90
17170;DHT22;8700;48.222;16.342;2023-07-13T09:40:34;31.40;99.90
17170;DHT22;8700;48.222;16.342;2023-07-13T09:44:11;32.20;99.70
17170;DHT22;8700;48.222;16.342;2023-07-13T09:47:39;30.50;99.90
17170;DHT22;8700;48.222;16.342;2023-07-13T09:51:07;31.10;99.90
17170;DHT22;8700;48.222;16.342;2023-07-13T09:54:35;31.10;99.50
17170;DHT22;8700;48.222;16.342;2023-07-13T09:57:57;30.60;99.90
17170;DHT22;8700;48.222;16.342;2023-07-13T10:01:31;32.40;98.60
17170;DHT22;8700;48.222;16.342;2023-07-13T10:05:00;32.30;97.60
17170;DHT22;8700;48.222;16.342;2023-07-13T10:08:25;32.80;96.80
17170;DHT22;8700;48.222;16.342;2023-07-13T10:11:50;32.10;97.20
17170;DHT22;8700;48.222;16.342;2023-07-13T10:15:16;31.70;97.50
17170;DHT22;8700;48.222;16.342;2023-07-13T10:18:41;31.30;97.70
17170;DHT22;8700;48.222;16.342;2023-07-13T10:22:20;31.90;96.80
17170;DHT22;8700;48.222;16.342;2023-07-13T10:25:46;31.60;97.40
17170;DHT22;8700;48.222;16.342;2023-07-13T10:29:11;31.70;96.50
17170;DHT22;8700;48.222;16.342;2023-07-13T10:32:34;31.30;96.50
17170;DHT22;8700;48.222;16.342;2023-07-13T10:36:11;30.60;97.40
17170;DHT22;8700;48.222;16.342;2023-07-13T10:39:35;30.10;98.20
17170;DHT22;8700;48.222;16.342;2023-07-13T10:42:58;30.90;97.40
17170;DHT22;8700;48.222;16.342;2023-07-13T10:46:24;31.30;96.20
17170;DHT22;8700;48.222;16.342;2023-07-13T10:49:48;31.30;96.40
17170;DHT22;8700;48.222;16.342;2023-07-13T10:53:19;31.20;96.60
17170;DHT22;8700;48.222;16.342;2023-07-13T10:56:42;31.80;95.60
17170;DHT22;8700;48.222;16.342;2023-07-13T11:00:18;32.70;93.80
17170;DHT22;8700;48.222;16.342;2023-07-13T11:03:48;33.10;92.80
17170;DHT22;8700;48.222;16.342;2023-07-13T11:07:17;32.50;92.30
17170;DHT22;8700;48.222;16.342;2023-07-13T11:10:48;32.30;92.40
17170;DHT22;8700;48.222;16.342;2023-07-13T11:14:36;32.90;90.80
17170;DHT22;8700;48.222;16.342;2023-07-13T11:18:03;33.10;89.30
17170;DHT22;8700;48.222;16.342;2023-07-13T11:21:26;33.20;88.40
17170;DHT22;8700;48.222;16.342;2023-07-13T11:24:56;33.40;87.90
17170;DHT22;8700;48.222;16.342;2023-07-13T11:28:22;32.40;88.60
17170;DHT22;8700;48.222;16.342;2023-07-13T11:31:52;32.10;89.80
17170;DHT22;8700;48.222;16.342;2023-07-13T11:35:18;31.80;90.50
17170;DHT22;8700;48.222;16.342;2023-07-13T11:38:44;31.70;90.70
17170;DHT22;8700;48.222;16.342;2023-07-13T11:42:09;31.70;90.80
17170;DHT22;8700;48.222;16.342;2023-07-13T11:45:32;31.90;90.50
17170;DHT22;8700;48.222;16.342;2023-07-13T11:48:55;31.30;91.10
17170;DHT22;8700;48.222;16.342;2023-07-13T11:52:18;31.80;90.40
17170;DHT22;8700;48.222;16.342;2023-07-13T11:55:41;31.50;90.30
17170;DHT22;8700;48.222;16.342;2023-07-13T11:59:06;31.50;90.00
17170;DHT22;8700;48.222;16.342;2023-07-13T12:02:30;31.90;88.60
17170;DHT22;8700;48.222;16.342;2023-07-13T12:05:58;31.50;88.90
17170;DHT22;8700;48.222;16.342;2023-07-13T12:09:21;31.30;89.40
17170;DHT22;8700;48.222;16.342;2023-07-13T12:12:50;31.70;88.70
17170;DHT22;8700;48.222;16.342;2023-07-13T12:16:15;32.00;88.70
17170;DHT22;8700;48.222;16.342;2023-07-13T12:19:36;31.50;89.40
17170;DHT22;8700;48.222;16.342;2023-07-13T12:22:59;31.50;88.40
17170;DHT22;8700;48.222;16.342;2023-07-13T12:26:22;31.60;87.30
17170;DHT22;8700;48.222;16.342;2023-07-13T12:29:49;31.40;88.20
17170;DHT22;8700;48.222;16.342;2023-07-13T12:33:12;31.40;88.90
17170;DHT22;8700;48.222;16.342;2023-07-13T12:36:36;31.30;87.90
17170;DHT22;8700;48.222;16.342;2023-07-13T12:39:59;31.10;87.80
17170;DHT22;8700;48.222;16.342;2023-07-13T12:43:20;31.50;86.60
17170;DHT22;8700;48.222;16.342;2023-07-13T12:46:57;31.20;87.30
17170;DHT22;8700;48.222;16.342;2023-07-13T12:50:21;30.20;89.50
17170;DHT22;8700;48.222;16.342;2023-07-13T12:53:47;29.90;90.70
17170;DHT22;8700;48.222;16.342;2023-07-13T12:57:16;29.70;91.00
17170;DHT22;8700;48.222;16.342;2023-07-13T13:00:38;30.40;90.90
17170;DHT22;8700;48.222;16.342;2023-07-13T13:04:01;30.60;90.80
17170;DHT22;8700;48.222;16.342;2023-07-13T13:07:26;30.90;90.40
17170;DHT22;8700;48.222;16.342;2023-07-13T13:10:48;30.30;91.10
17170;DHT22;8700;48.222;16.342;2023-07-13T13:14:10;30.60;90.90
17170;DHT22;8700;48.222;16.342;2023-07-13T13:17:31;30.30;91.20
17170;DHT22;8700;48.222;16.342;2023-07-13T13:20:53;30.10;91.50
17170;DHT22;8700;48.222;16.342;2023-07-13T13:24:16;30.10;91.50
17170;DHT22;8700;48.222;16.342;2023-07-13T13:27:41;30.20;91.80
17170;DHT22;8700;48.222;16.342;2023-07-13T13:31:04;30.30;91.40
17170;DHT22;8700;48.222;16.342;2023-07-13T13:34:25;30.40;91.40
17170;DHT22;8700;48.222;16.342;2023-07-13T13:37:47;30.90;90.90
17170;DHT22;8700;48.222;16.342;2023-07-13T13:41:10;30.60;90.80
17170;DHT22;8700;48.222;16.342;2023-07-13T13:44:33;30.40;90.70
17170;DHT22;8700;48.222;16.342;2023-07-13T13:47:55;30.40;90.40
17170;DHT22;8700;48.222;16.342;2023-07-13T13:51:18;30.30;90.90
17170;DHT22;8700;48.222;16.342;2023-07-13T13:54:39;30.90;90.10
17170;DHT22;8700;48.222;16.342;2023-07-13T13:58:01;30.30;90.10
17170;DHT22;8700;48.222;16.342;2023-07-13T14:01:23;30.60;89.50
17170;DHT22;8700;48.222;16.342;2023-07-13T14:04:45;30.50;90.10
17170;DHT22;8700;48.222;16.342;2023-07-13T14:08:11;30.60;89.40
17170;DHT22;8700;48.222;16.342;2023-07-13T14:11:34;30.90;89.50
17170;DHT22;8700;48.222;16.342;2023-07-13T14:14:56;31.30;88.90
17170;DHT22;8700;48.222;16.342;2023-07-13T14:18:18;31.10;88.20
17170;DHT22;8700;48.222;16.342;2023-07-13T14:21:41;30.30;89.40
17170;DHT22;8700;48.222;16.342;2023-07-13T14:25:02;29.90;90.40
17170;DHT22;8700;48.222;16.342;2023-07-13T14:28:25;29.70;90.70
17170;DHT22;8700;48.222;16.342;2023-07-13T14:31:48;29.80;91.10
17170;DHT22;8700;48.222;16.342;2023-07-13T14:35:11;29.90;90.80
17170;DHT22;8700;48.222;16.342;2023-07-13T14:38:33;29.20;91.20
17170;DHT22;8700;48.222;16.342;2023-07-13T14:41:56;29.30;91.40
17170;DHT22;8700;48.222;16.342;2023-07-13T14:45:19;29.10;91.50
17170;DHT22;8700;48.222;16.342;2023-07-13T14:48:40;29.20;91.50
17170;DHT22;8700;48.222;16.342;2023-07-13T14:52:09;28.80;91.90
17170;DHT22;8700;48.222;16.342;2023-07-13T14:55:33;28.90;91.90
17170;DHT22;8700;48.222;16.342;2023-07-13T14:58:55;28.80;92.00
17170;DHT22;8700;48.222;16.342;2023-07-13T15:02:19;28.90;91.80
17170;DHT22;8700;48.222;16.342;2023-07-13T15:05:44;28.40;92.50
17170;DHT22;8700;48.222;16.342;2023-07-13T15:09:07;28.30;92.80
17170;DHT22;8700;48.222;16.342;2023-07-13T15:12:30;28.30;92.90
17170;DHT22;8700;48.222;16.342;2023-07-13T15:15:52;28.20;93.20
17170;DHT22;8700;48.222;16.342;2023-07-13T15:19:15;28.40;93.40
17170;DHT22;8700;48.222;16.342;2023-07-13T15:22:37;28.30;93.40
17170;DHT22;8700;48.222;16.342;2023-07-13T15:25:58;28.50;93.40
17170;DHT22;8700;48.222;16.342;2023-07-13T15:29:21;28.40;93.50
17170;DHT22;8700;48.222;16.342;2023-07-13T15:32:43;28.10;93.90
17170;DHT22;8700;48.222;16.342;2023-07-13T15:36:05;27.80;94.30
17170;DHT22;8700;48.222;16.342;2023-07-13T15:39:26;27.80;94.50
17170;DHT22;8700;48.222;16.342;2023-07-13T15:42:49;27.90;94.60
17170;DHT22;8700;48.222;16.342;2023-07-13T15:46:14;27.80;94.90
17170;DHT22;8700;48.222;16.342;2023-07-13T15:49:35;27.70;95.10
17170;DHT22;8700;48.222;16.342;2023-07-13T15:52:58;27.60;95.20
17170;DHT22;8700;48.222;16.342;2023-07-13T15:56:24;27.30;95.60
17170;DHT22;8700;48.222;16.342;2023-07-13T15:59:45;27.20;95.90
17170;DHT22;8700;48.222;16.342;2023-07-13T16:03:08;27.00;96.10
17170;DHT22;8700;48.222;16.342;2023-07-13T16:06:32;26.70;96.50
17170;DHT22;8700;48.222;16.342;2023-07-13T16:09:54;26.70;97.00
17170;DHT22;8700;48.222;16.342;2023-07-13T16:13:21;26.50;97.30
17170;DHT22;8700;48.222;16.342;2023-07-13T16:16:44;26.50;97.50
17170;DHT22;8700;48.222;16.342;2023-07-13T16:20:09;26.50;97.50
17170;DHT22;8700;48.222;16.342;2023-07-13T16:23:32;26.50;99.30
17170;DHT22;8700;48.222;16.342;2023-07-13T16:26:55;26.10;99.90
17170;DHT22;8700;48.222;16.342;2023-07-13T16:30:20;25.70;99.90
17170;DHT22;8700;48.222;16.342;2023-07-13T16:33:42;25.70;99.90
17170;DHT22;8700;48.222;16.342;2023-07-13T16:37:14;25.70;99.90
17170;DHT22;8700;48.222;16.342;2023-07-13T16:40:36;25.50;99.90
17170;DHT22;8700;48.222;16.342;2023-07-13T16:43:57;25.40;99.90
17170;DHT22;8700;48.222;16.342;2023-07-13T16:47:18;25.10;99.90
17170;DHT22;8700;48.222;16.342;2023-07-13T16:50:41;25.20;99.90
17170;DHT22;8700;48.222;16.342;2023-07-13T16:54:08;25.20;99.90
17170;DHT22;8700;48.222;16.342;2023-07-13T16:57:32;25.20;99.90
17170;DHT22;8700;48.222;16.342;2023-07-13T17:00:54;25.00;99.90
17170;DHT22;8700;48.222;16.342;2023-07-13T17:04:16;25.10;99.90
17170;DHT22;8700;48.222;16.342;2023-07-13T17:07:40;25.10;99.90
17170;DHT22;8700;48.222;16.342;2023-07-13T17:11:04;25.10;99.90
17170;DHT22;8700;48.222;16.342;2023-07-13T17:14:25;25.10;99.90
17170;DHT22;8700;48.222;16.342;2023-07-13T17:17:51;25.20;99.90
17170;DHT22;8700;48.222;16.342;2023-07-13T17:21:14;25.30;99.90
17170;DHT22;8700;48.222;16.342;2023-07-13T17:24:36;25.40;99.90
17170;DHT22;8700;48.222;16.342;2023-07-13T17:27:59;25.30;99.90
17170;DHT22;8700;48.222;16.342;2023-07-13T17:31:21;25.30;99.90
17170;DHT22;8700;48.222;16.342;2023-07-13T17:34:42;25.40;99.90
17170;DHT22;8700;48.222;16.342;2023-07-13T17:38:05;25.30;99.90
17170;DHT22;8700;48.222;16.342;2023-07-13T17:41:26;25.30;99.90
17170;DHT22;8700;48.222;16.342;2023-07-13T17:44:49;25.30;99.90
17170;DHT22;8700;48.222;16.342;2023-07-13T17:48:10;25.20;99.90
17170;DHT22;8700;48.222;16.342;2023-07-13T17:51:32;25.10;99.90
17170;DHT22;8700;48.222;16.342;2023-07-13T17:54:55;25.10;99.90
17170;DHT22;8700;48.222;16.342;2023-07-13T17:58:17;25.10;99.90
17170;DHT22;8700;48.222;16.342;2023-07-13T18:01:41;25.10;99.90
17170;DHT22;8700;48.222;16.342;2023-07-13T18:05:03;25.10;99.90
17170;DHT22;8700;48.222;16.342;2023-07-13T18:08:30;25.20;99.90
17170;DHT22;8700;48.222;16.342;2023-07-13T18:11:53;25.20;99.90
17170;DHT22;8700;48.222;16.342;2023-07-13T18:15:14;24.90;99.90
17170;DHT22;8700;48.222;16.342;2023-07-13T18:18:37;25.00;99.90
17170;DHT22;8700;48.222;16.342;2023-07-13T18:21:59;24.90;99.90
17170;DHT22;8700;48.222;16.342;2023-07-13T18:25:24;24.80;99.90
17170;DHT22;8700;48.222;16.342;2023-07-13T18:28:46;25.00;99.90
17170;DHT22;8700;48.222;16.342;2023-07-13T18:32:15;25.00;99.90
17170;DHT22;8700;48.222;16.342;2023-07-13T18:35:40;25.10;99.90
17170;DHT22;8700;48.222;16.342;2023-07-13T18:39:01;25.00;99.90
17170;DHT22;8700;48.222;16.342;2023-07-13T18:42:25;25.00;99.90
17170;DHT22;8700;48.222;16.342;2023-07-13T18:45:53;25.00;99.90
17170;DHT22;8700;48.222;16.342;2023-07-13T18:49:15;25.10;99.90
17170;DHT22;8700;48.222;16.342;2023-07-13T18:52:38;25.10;99.90
17170;DHT22;8700;48.222;16.342;2023-07-13T18:55:59;24.80;99.90
17170;DHT22;8700;48.222;16.342;2023-07-13T18:59:20;24.80;99.90
17170;DHT22;8700;48.222;16.342;2023-07-13T19:02:43;24.90;99.90
17170;DHT22;8700;48.222;16.342;2023-07-13T19:06:04;24.90;99.90
17170;DHT22;8700;48.222;16.342;2023-07-13T19:09:27;24.90;99.90
17170;DHT22;8700;48.222;16.342;2023-07-13T19:12:51;24.90;99.90
17170;DHT22;8700;48.222;16.342;2023-07-13T19:16:14;24.90;99.90
17170;DHT22;8700;48.222;16.342;2023-07-13T19:19:35;24.70;99.90
17170;DHT22;8700;48.222;16.342;2023-07-13T19:22:59;24.70;99.90
17170;DHT22;8700;48.222;16.342;2023-07-13T19:26:24;24.70;99.90
17170;DHT22;8700;48.222;16.342;2023-07-13T19:29:46;24.80;99.90
17170;DHT22;8700;48.222;16.342;2023-07-13T19:33:10;24.90;99.90
17170;DHT22;8700;48.222;16.342;2023-07-13T19:36:32;24.90;99.90
17170;DHT22;8700;48.222;16.342;2023-07-13T19:39:54;24.70;99.90
17170;DHT22;8700;48.222;16.342;2023-07-13T19:43:16;24.70;99.90
17170;DHT22;8700;48.222;16.342;2023-07-13T19:46:38;24.80;99.90
17170;DHT22;8700;48.222;16.342;2023-07-13T19:49:59;24.80;99.90
17170;DHT22;8700;48.222;16.342;2023-07-13T19:53:20;25.00;99.90
17170;DHT22;8700;48.222;16.342;2023-07-13T19:56:42;25.00;99.90
17170;DHT22;8700;48.222;16.342;2023-07-13T20:00:13;24.80;99.90
17170;DHT22;8700;48.222;16.342;2023-07-13T20:03:34;25.00;99.90
17170;DHT22;8700;48.222;16.342;2023-07-13T20:06:56;25.00;99.90
17170;DHT22;8700;48.222;16.342;2023-07-13T20:10:21;24.90;99.90
17170;DHT22;8700;48.222;16.342;2023-07-13T20:13:43;24.70;99.90
17170;DHT22;8700;48.222;16.342;2023-07-13T20:17:20;24.70;99.90
17170;DHT22;8700;48.222;16.342;2023-07-13T20:20:43;24.70;99.90
17170;DHT22;8700;48.222;16.342;2023-07-13T20:24:13;24.70;99.90
17170;DHT22;8700;48.222;16.342;2023-07-13T20:27:36;24.90;99.90
17170;DHT22;8700;48.222;16.342;2023-07-13T20:30:59;24.50;99.90
17170;DHT22;8700;48.222;16.342;2023-07-13T20:34:25;24.50;99.90
17170;DHT22;8700;48.222;16.342;2023-07-13T20:37:48;24.70;99.90
17170;DHT22;8700;48.222;16.342;2023-07-13T20:41:11;24.40;99.90
17170;DHT22;8700;48.222;16.342;2023-07-13T20:44:32;24.40;99.90
17170;DHT22;8700;48.222;16.342;2023-07-13T20:47:54;24.20;99.90
17170;DHT22;8700;48.222;16.342;2023-07-13T20:51:19;24.40;99.90
17170;DHT22;8700;48.222;16.342;2023-07-13T20:54:42;24.40;99.90
17170;DHT22;8700;48.222;16.342;2023-07-13T20:58:03;24.20;99.90
17170;DHT22;8700;48.222;16.342;2023-07-13T21:01:27;24.30;99.90
17170;DHT22;8700;48.222;16.342;2023-07-13T21:04:49;24.30;99.90
17170;DHT22;8700;48.222;16.342;2023-07-13T21:08:13;24.30;99.90
17170;DHT22;8700;48.222;16.342;2023-07-13T21:11:34;24.20;99.90
17170;DHT22;8700;48.222;16.342;2023-07-13T21:14:57;24.20;99.90
17170;DHT22;8700;48.222;16.342;2023-07-13T21:18:20;24.10;99.90
17170;DHT22;8700;48.222;16.342;2023-07-13T21:21:42;24.10;99.90
17170;DHT22;8700;48.222;16.342;2023-07-13T21:25:12;24.10;99.90